createdAt,value
2022-09-01T00:00:30.041Z,19.72
2022-09-01T00:02:59.810Z,19.66
2022-09-01T00:05:28.050Z,19.63
2022-09-01T00:07:55.924Z,19.60
2022-09-01T00:10:24.100Z,19.60
2022-09-01T00:12:52.693Z,19.61
2022-09-01T00:15:20.693Z,19.58
2022-09-01T00:17:49.058Z,19.58
2022-09-01T00:20:20.752Z,19.56
2022-09-01T00:22:49.893Z,19.56
2022-09-01T00:25:20.327Z,19.56
2022-09-01T00:27:49.675Z,19.55
2022-09-01T00:30:18.480Z,19.52
2022-09-01T00:32:46.900Z,19.50
2022-09-01T00:35:15.333Z,19.49
2022-09-01T00:37:45.319Z,19.48
2022-09-01T00:40:15.129Z,19.49
2022-09-01T00:42:44.538Z,19.46
2022-09-01T00:45:13.355Z,19.43
2022-09-01T00:47:41.633Z,19.42
2022-09-01T00:50:11.510Z,19.38
2022-09-01T00:52:44.056Z,19.37
2022-09-01T00:55:17.316Z,19.37
2022-09-01T00:57:46.415Z,19.38
2022-09-01T01:00:18.542Z,19.38
2022-09-01T01:02:47.110Z,19.39
2022-09-01T01:05:16.059Z,19.41
2022-09-01T01:07:48.080Z,19.44
2022-09-01T01:10:23.881Z,19.45
2022-09-01T01:12:52.603Z,19.47
2022-09-01T01:15:21.406Z,19.47
2022-09-01T01:17:49.378Z,19.47
2022-09-01T01:20:37.935Z,19.47
2022-09-01T01:23:15.936Z,19.49
2022-09-01T01:25:49.826Z,19.50
2022-09-01T01:28:22.075Z,19.48
2022-09-01T01:30:53.593Z,19.48
2022-09-01T01:33:24.092Z,19.49
2022-09-01T01:35:56.246Z,19.46
2022-09-01T01:38:27.547Z,19.42
2022-09-01T01:40:57.671Z,19.40
2022-09-01T01:43:27.548Z,19.35
2022-09-01T01:45:58.975Z,19.31
2022-09-01T01:48:28.211Z,19.24
2022-09-01T01:51:00.859Z,19.18
2022-09-01T01:53:29.954Z,19.10
2022-09-01T01:56:00.911Z,19.04
2022-09-01T01:58:30.750Z,18.97
2022-09-01T02:00:59.141Z,18.85
2022-09-01T02:03:30.772Z,18.83
2022-09-01T02:06:04.707Z,18.74
2022-09-01T02:08:34.154Z,18.66
2022-09-01T02:11:05.910Z,18.61
2022-09-01T02:13:35.155Z,18.55
2022-09-01T02:16:07.576Z,18.51
2022-09-01T02:18:38.041Z,18.47
2022-09-01T02:21:15.110Z,18.46
2022-09-01T02:23:44.382Z,18.44
2022-09-01T02:26:16.978Z,18.44
2022-09-01T02:28:55.577Z,18.41
2022-09-01T02:31:28.831Z,18.41
2022-09-01T02:33:57.100Z,18.37
2022-09-01T02:36:25.857Z,18.31
2022-09-01T02:38:56.463Z,18.28
2022-09-01T02:41:29.095Z,18.25
2022-09-01T02:44:02.229Z,18.24
2022-09-01T02:46:30.801Z,18.25
2022-09-01T02:49:00.798Z,18.25
2022-09-01T02:51:29.204Z,18.24
2022-09-01T02:53:57.588Z,18.24
2022-09-01T02:56:27.380Z,18.24
2022-09-01T02:58:56.214Z,18.27
2022-09-01T03:01:29.379Z,18.30
2022-09-01T03:04:01.973Z,18.32
2022-09-01T03:06:34.120Z,18.38
2022-09-01T03:09:03.927Z,18.41
2022-09-01T03:11:35.040Z,18.46
2022-09-01T03:14:03.424Z,18.47
2022-09-01T03:16:31.588Z,18.49
2022-09-01T03:19:03.197Z,18.49
2022-09-01T03:21:32.443Z,18.50
2022-09-01T03:24:02.086Z,18.53
2022-09-01T03:26:31.352Z,18.55
2022-09-01T03:29:01.880Z,18.57
2022-09-01T03:31:31.019Z,18.55
2022-09-01T03:34:00.750Z,18.55
2022-09-01T03:36:33.319Z,18.49
2022-09-01T03:39:02.258Z,18.45
2022-09-01T03:41:31.378Z,18.42
2022-09-01T03:44:01.324Z,18.39
2022-09-01T03:46:36.236Z,18.38
2022-09-01T03:49:07.477Z,18.38
2022-09-01T03:51:39.185Z,18.36
2022-09-01T03:54:07.883Z,18.37
2022-09-01T03:56:36.307Z,18.36
2022-09-01T03:59:05.615Z,18.33
2022-09-01T04:01:43.849Z,18.29
2022-09-01T04:04:15.034Z,18.21
2022-09-01T04:06:44.610Z,18.14
2022-09-01T04:09:14.527Z,18.12
2022-09-01T04:11:46.337Z,18.08
2022-09-01T04:14:16.686Z,18.05
2022-09-01T04:17:03.279Z,18.02
2022-09-01T04:19:36.787Z,17.98
2022-09-01T04:22:07.815Z,17.91
2022-09-01T04:24:36.572Z,17.88
2022-09-01T04:27:07.578Z,17.85
2022-09-01T04:29:37.171Z,17.83
2022-09-01T04:32:12.556Z,17.82
2022-09-01T04:34:41.674Z,17.81
2022-09-01T04:37:13.113Z,17.80
2022-09-01T04:39:51.279Z,17.78
2022-09-01T04:42:23.471Z,17.74
2022-09-01T04:44:54.623Z,17.73
2022-09-01T04:47:35.154Z,17.72
2022-09-01T04:50:13.820Z,17.75
2022-09-01T04:52:44.801Z,17.75
2022-09-01T04:55:18.394Z,17.78
2022-09-01T04:57:49.543Z,17.81
2022-09-01T05:00:23.389Z,17.85
2022-09-01T05:02:53.349Z,17.89
2022-09-01T05:05:22.728Z,17.93
2022-09-01T05:07:53.035Z,17.95
2022-09-01T05:10:29.890Z,18.00
2022-09-01T05:12:58.422Z,18.07
2022-09-01T05:15:28.110Z,18.13
2022-09-01T05:18:02.312Z,18.20
2022-09-01T05:20:32.017Z,18.25
2022-09-01T05:23:00.530Z,18.25
2022-09-01T05:25:28.478Z,18.33
2022-09-01T05:27:56.721Z,18.38
2022-09-01T05:30:28.569Z,18.45
2022-09-01T05:32:58.164Z,18.48
2022-09-01T05:35:32.640Z,18.53
2022-09-01T05:38:02.547Z,18.60
2022-09-01T05:40:30.901Z,18.66
2022-09-01T05:42:59.381Z,18.70
2022-09-01T05:45:28.025Z,18.75
2022-09-01T05:47:58.326Z,18.79
2022-09-01T05:50:27.903Z,18.84
2022-09-01T05:52:56.138Z,18.84
2022-09-01T05:55:27.676Z,18.90
2022-09-01T05:57:57.238Z,18.96
2022-09-01T06:00:25.345Z,19.04
2022-09-01T06:02:58.669Z,19.02
2022-09-01T06:05:28.205Z,19.08
2022-09-01T06:07:57.310Z,19.13
2022-09-01T06:10:25.519Z,19.15
2022-09-01T06:12:54.401Z,19.22
2022-09-01T06:15:24.752Z,19.24
2022-09-01T06:17:53.534Z,19.33
2022-09-01T06:20:22.984Z,19.41
2022-09-01T06:22:53.376Z,19.47
2022-09-01T06:25:22.054Z,19.47
2022-09-01T06:27:52.403Z,19.49
2022-09-01T06:30:24.482Z,19.50
2022-09-01T06:32:54.816Z,19.59
2022-09-01T06:35:29.898Z,19.66
2022-09-01T06:37:59.985Z,19.74
2022-09-01T06:40:30.330Z,19.88
2022-09-01T06:43:00.497Z,20.00
2022-09-01T06:45:29.387Z,20.08
2022-09-01T06:47:59.370Z,20.20
2022-09-01T06:53:45.027Z,20.51
2022-09-01T06:56:13.617Z,20.72
2022-09-01T06:58:47.262Z,20.82
2022-09-01T07:01:19.561Z,21.00
2022-09-01T07:03:51.908Z,21.11
2022-09-01T07:09:22.262Z,21.40
2022-09-01T07:12:29.422Z,21.50
2022-09-01T07:17:50.233Z,21.74
2022-09-01T07:20:24.607Z,21.88
2022-09-01T07:23:09.971Z,21.97
2022-09-01T07:26:02.243Z,22.05
2022-09-01T07:28:39.919Z,22.16
2022-09-01T07:39:55.401Z,22.82
2022-09-01T07:45:28.769Z,23.13
2022-09-01T07:48:00.027Z,23.21
2022-09-01T07:53:19.891Z,23.32
2022-09-01T07:55:49.954Z,23.56
2022-09-01T07:58:22.111Z,23.73
2022-09-01T08:00:53.340Z,23.83
2022-09-01T08:03:25.084Z,24.00
2022-09-01T08:05:57.590Z,24.17
2022-09-01T08:08:29.354Z,24.24
2022-09-01T08:11:05.297Z,24.32
2022-09-01T08:13:41.744Z,24.56
2022-09-01T08:16:19.526Z,24.54
2022-09-01T08:18:49.979Z,24.59
2022-09-01T08:21:23.538Z,24.67
2022-09-01T08:23:56.753Z,24.69
2022-09-01T08:26:27.154Z,24.71
2022-09-01T08:28:57.104Z,24.89
2022-09-01T08:31:30.623Z,24.90
2022-09-01T08:34:00.194Z,25.22
2022-09-01T08:36:29.217Z,25.44
2022-09-01T08:38:57.179Z,25.71
2022-09-01T08:41:38.699Z,25.90
2022-09-01T08:44:18.159Z,26.17
2022-09-01T08:46:47.130Z,26.24
2022-09-01T08:49:28.141Z,26.46
2022-09-01T08:52:07.204Z,26.70
2022-09-01T08:54:43.445Z,26.80
2022-09-01T08:57:18.093Z,26.67
2022-09-01T08:59:53.622Z,26.84
2022-09-01T09:02:38.604Z,26.89
2022-09-01T09:05:16.764Z,27.00
2022-09-01T09:08:07.124Z,27.21
2022-09-01T09:10:43.563Z,27.03
2022-09-01T09:13:22.583Z,27.27
2022-09-01T09:16:14.041Z,27.52
2022-09-01T09:18:56.640Z,27.46
2022-09-01T09:21:29.899Z,27.44
2022-09-01T09:24:05.088Z,27.65
2022-09-01T09:26:48.814Z,27.70
2022-09-01T09:29:18.145Z,27.63
2022-09-01T09:31:50.766Z,27.87
2022-09-01T09:34:32.572Z,28.08
2022-09-01T09:37:03.523Z,28.08
2022-09-01T09:39:31.667Z,28.22
2022-09-01T09:42:09.006Z,28.16
2022-09-01T09:44:44.168Z,28.26
2022-09-01T09:47:46.599Z,28.53
2022-09-01T09:50:20.673Z,28.60
2022-09-01T09:52:49.547Z,28.65
2022-09-01T09:55:25.523Z,28.50
2022-09-01T09:57:58.990Z,28.48
2022-09-01T10:00:29.825Z,28.47
2022-09-01T10:03:04.702Z,28.71
2022-09-01T10:05:42.803Z,28.70
2022-09-01T10:08:14.817Z,28.33
2022-09-01T10:10:57.346Z,28.42
2022-09-01T10:13:29.135Z,28.56
2022-09-01T10:16:03.695Z,28.60
2022-09-01T10:18:39.382Z,28.76
2022-09-01T10:21:12.976Z,29.10
2022-09-01T10:23:43.199Z,29.25
2022-09-01T10:26:16.911Z,29.34
2022-09-01T10:28:54.019Z,29.51
2022-09-01T10:31:23.046Z,29.76
2022-09-01T10:33:52.811Z,29.83
2022-09-01T10:36:24.610Z,29.71
2022-09-01T10:38:58.740Z,29.71
2022-09-01T10:41:58.115Z,29.67
2022-09-01T10:44:34.144Z,29.65
2022-09-01T10:47:13.193Z,29.60
2022-09-01T10:50:10.144Z,29.37
2022-09-01T10:53:02.626Z,28.91
2022-09-01T10:55:41.485Z,28.55
2022-09-01T11:01:34.949Z,28.04
2022-09-01T11:04:02.636Z,28.01
2022-09-01T11:07:16.862Z,28.00
2022-09-01T11:09:49.180Z,28.04
2022-09-01T11:12:48.272Z,27.99
2022-09-01T11:15:39.257Z,28.49
2022-09-01T11:18:13.331Z,29.01
2022-09-01T11:20:48.038Z,29.40
2022-09-01T11:23:31.167Z,29.61
2022-09-01T11:28:51.543Z,29.87
2022-09-01T11:31:31.835Z,30.19
2022-09-01T11:34:14.023Z,30.23
2022-09-01T11:36:54.129Z,30.54
2022-09-01T11:39:32.363Z,30.53
2022-09-01T11:42:04.958Z,31.11
2022-09-01T11:44:38.399Z,31.42
2022-09-01T11:47:13.660Z,31.60
2022-09-01T11:49:50.047Z,31.79
2022-09-01T11:52:20.531Z,31.85
2022-09-01T11:54:49.391Z,31.70
2022-09-01T11:57:25.528Z,31.52
2022-09-01T11:59:54.451Z,31.42
2022-09-01T12:02:26.008Z,31.49
2022-09-01T12:04:56.321Z,31.36
2022-09-01T12:07:38.202Z,31.36
2022-09-01T12:10:16.212Z,31.43
2022-09-01T12:12:45.715Z,31.39
2022-09-01T12:15:21.271Z,31.41
2022-09-01T12:17:49.568Z,31.14
2022-09-01T12:20:31.115Z,31.00
2022-09-01T12:23:02.341Z,30.50
2022-09-01T12:25:33.424Z,30.63
2022-09-01T12:28:06.006Z,30.78
2022-09-01T12:30:39.431Z,30.48
2022-09-01T12:33:25.990Z,30.59
2022-09-01T12:36:23.763Z,30.88
2022-09-01T12:38:53.283Z,30.96
2022-09-01T12:41:35.242Z,31.01
2022-09-01T12:44:34.576Z,31.03
2022-09-01T12:47:06.918Z,30.97
2022-09-01T12:49:38.296Z,31.23
2022-09-01T12:52:26.393Z,31.32
2022-09-01T12:55:47.455Z,31.34
2022-09-01T12:58:06.956Z,30.85
2022-09-01T13:00:37.941Z,30.74
2022-09-01T13:03:18.365Z,30.38
2022-09-01T13:05:51.062Z,30.27
2022-09-01T13:08:22.312Z,30.15
2022-09-01T13:10:53.284Z,29.94
2022-09-01T13:13:24.083Z,29.70
2022-09-01T13:15:55.326Z,29.47
2022-09-01T13:18:26.188Z,29.31
2022-09-01T13:20:56.156Z,29.22
2022-09-01T13:23:25.213Z,29.13
2022-09-01T13:25:53.768Z,29.19
2022-09-01T13:36:51.495Z,30.16
2022-09-01T13:39:20.857Z,30.53
2022-09-01T13:41:49.302Z,30.88
2022-09-01T13:44:18.419Z,31.03
2022-09-01T13:52:24.174Z,30.92
2022-09-01T13:54:52.350Z,30.87
2022-09-01T13:57:20.307Z,30.86
2022-09-01T13:59:48.486Z,30.73
2022-09-01T14:02:18.204Z,30.72
2022-09-01T14:04:49.847Z,30.69
2022-09-01T14:07:20.517Z,30.82
2022-09-01T14:09:58.709Z,30.86
2022-09-01T14:12:30.761Z,31.09
2022-09-01T14:17:52.440Z,31.48
2022-09-01T14:20:22.857Z,31.68
2022-09-01T14:22:52.034Z,31.93
2022-09-01T14:25:21.503Z,31.91
2022-09-01T14:27:49.880Z,32.09
2022-09-01T14:30:20.892Z,32.06
2022-09-01T14:32:51.402Z,32.14
2022-09-01T14:35:21.735Z,32.11
2022-09-01T14:37:49.934Z,31.91
2022-09-01T14:40:18.542Z,31.40
2022-09-01T14:42:51.630Z,30.86
2022-09-01T14:45:22.723Z,30.48
2022-09-01T14:47:55.309Z,30.29
2022-09-01T14:50:24.704Z,29.92
2022-09-01T14:52:54.967Z,29.57
2022-09-01T14:55:24.655Z,29.43
2022-09-01T14:57:54.446Z,29.09
2022-09-01T15:00:25.223Z,29.09
2022-09-01T15:02:55.849Z,29.09
2022-09-01T15:05:24.985Z,29.29
2022-09-01T15:07:54.260Z,29.66
2022-09-01T15:10:26.087Z,29.84
2022-09-01T15:12:55.849Z,29.97
2022-09-01T15:15:24.487Z,30.20
2022-09-01T15:17:53.029Z,30.38
2022-09-01T15:20:41.043Z,30.28
2022-09-01T15:23:10.083Z,30.25
2022-09-01T15:25:38.420Z,30.08
2022-09-01T15:28:06.731Z,30.21
2022-09-01T15:30:35.324Z,30.07
2022-09-01T15:33:06.651Z,30.43
2022-09-01T15:35:36.261Z,31.27
2022-09-01T15:38:06.698Z,32.13
2022-09-01T15:40:35.535Z,32.92
2022-09-01T15:43:03.488Z,33.28
2022-09-01T15:45:31.664Z,33.60
2022-09-01T15:47:59.884Z,33.85
2022-09-01T15:50:28.572Z,34.05
2022-09-01T15:53:01.497Z,34.28
2022-09-01T15:55:31.330Z,34.54
2022-09-01T15:58:00.363Z,34.05
2022-09-01T16:00:28.587Z,33.83
2022-09-01T16:03:01.511Z,34.24
2022-09-01T16:05:29.966Z,34.76
2022-09-01T16:08:01.314Z,34.91
2022-09-01T16:10:33.607Z,34.70
2022-09-01T16:13:05.282Z,35.01
2022-09-01T16:15:35.533Z,35.23
2022-09-01T16:18:19.744Z,35.72
2022-09-01T16:21:00.107Z,36.11
2022-09-01T16:23:40.703Z,35.76
2022-09-01T16:26:09.018Z,35.68
2022-09-01T16:28:37.883Z,35.79
2022-09-01T16:31:11.755Z,35.66
2022-09-01T16:33:40.251Z,34.82
2022-09-01T16:36:27.170Z,33.90
2022-09-01T16:39:03.068Z,32.87
2022-09-01T16:41:43.939Z,32.03
2022-09-01T16:44:23.513Z,31.44
2022-09-01T16:47:05.205Z,30.84
2022-09-01T16:49:40.004Z,30.31
2022-09-01T16:52:17.167Z,29.74
2022-09-01T16:55:02.761Z,29.37
2022-09-01T16:57:41.257Z,29.12
2022-09-01T17:00:14.115Z,28.95
2022-09-01T17:02:50.949Z,28.76
2022-09-01T17:05:25.288Z,28.58
2022-09-01T17:08:06.830Z,28.40
2022-09-01T17:10:43.927Z,28.25
2022-09-01T17:13:20.218Z,28.00
2022-09-01T17:15:53.702Z,27.74
2022-09-01T17:18:30.526Z,27.53
2022-09-01T17:21:03.557Z,27.39
2022-09-01T17:23:38.095Z,27.20
2022-09-01T17:26:15.578Z,27.04
2022-09-01T17:28:48.872Z,26.89
2022-09-01T17:31:33.919Z,26.75
2022-09-01T17:34:11.335Z,26.59
2022-09-01T17:36:47.125Z,26.31
2022-09-01T17:39:27.927Z,26.11
2022-09-01T17:42:00.524Z,26.00
2022-09-01T17:44:37.311Z,25.99
2022-09-01T17:47:12.654Z,25.90
2022-09-01T17:49:51.680Z,25.86
2022-09-01T17:52:29.377Z,25.75
2022-09-01T17:55:04.525Z,25.63
2022-09-01T17:57:41.908Z,25.54
2022-09-01T18:00:22.968Z,25.37
2022-09-01T18:03:14.841Z,25.20
2022-09-01T18:05:45.844Z,24.97
2022-09-01T18:08:30.067Z,24.84
2022-09-01T18:11:02.372Z,24.76
2022-09-01T18:13:52.981Z,24.62
2022-09-01T18:16:24.471Z,24.52
2022-09-01T18:18:54.498Z,24.43
2022-09-01T18:21:26.199Z,24.31
2022-09-01T18:23:59.153Z,24.22
2022-09-01T18:26:32.395Z,24.17
2022-09-01T18:29:04.759Z,24.02
2022-09-01T18:32:08.756Z,23.87
2022-09-01T18:35:02.578Z,23.63
2022-09-01T18:37:37.004Z,23.41
2022-09-01T18:40:13.459Z,23.24
2022-09-01T18:42:49.155Z,23.10
2022-09-01T18:45:30.678Z,22.99
2022-09-01T18:48:10.115Z,22.84
2022-09-01T18:50:48.159Z,22.65
2022-09-01T18:53:28.332Z,22.48
2022-09-01T18:56:01.762Z,22.33
2022-09-01T18:58:45.519Z,22.24
2022-09-01T19:01:18.137Z,22.20
2022-09-01T19:03:53.559Z,22.11
2022-09-01T19:06:31.579Z,22.06
2022-09-01T19:09:08.756Z,22.01
2022-09-01T19:11:49.008Z,21.93
2022-09-01T19:14:25.914Z,21.80
2022-09-01T19:17:08.523Z,21.67
2022-09-01T19:19:43.970Z,21.53
2022-09-01T19:22:17.583Z,21.36
2022-09-01T19:24:51.875Z,21.35
2022-09-01T19:27:25.257Z,21.32
2022-09-01T19:29:57.017Z,21.29
2022-09-01T19:32:29.609Z,21.21
2022-09-01T19:35:04.460Z,21.21
2022-09-01T19:37:33.151Z,21.29
2022-09-01T19:40:01.461Z,21.34
2022-09-01T19:42:34.806Z,21.32
2022-09-01T19:45:10.197Z,21.33
2022-09-01T19:47:45.582Z,21.34
2022-09-01T19:50:19.928Z,21.32
2022-09-01T19:52:55.563Z,21.32
2022-09-01T19:55:31.533Z,21.30
2022-09-01T19:58:04.228Z,21.27
2022-09-01T20:00:50.766Z,21.18
2022-09-01T20:03:26.548Z,21.12
2022-09-01T20:06:01.468Z,21.02
2022-09-01T20:08:38.115Z,20.94
2022-09-01T20:11:11.754Z,20.85
2022-09-01T20:14:08.302Z,20.77
2022-09-01T20:16:41.594Z,20.72
2022-09-01T20:19:16.285Z,20.64
2022-09-01T20:21:46.261Z,20.57
2022-09-01T20:24:23.675Z,20.50
2022-09-01T20:26:59.292Z,20.45
2022-09-01T20:29:33.878Z,20.41
2022-09-01T20:32:04.021Z,20.34
2022-09-01T20:34:38.433Z,20.27
2022-09-01T20:37:11.143Z,20.23
2022-09-01T20:40:01.808Z,20.16
2022-09-01T20:42:40.205Z,20.12
2022-09-01T20:45:13.520Z,20.06
2022-09-01T20:47:42.816Z,20.04
2022-09-01T20:50:14.790Z,20.02
2022-09-01T20:52:54.656Z,19.98
2022-09-01T20:55:30.061Z,19.95
2022-09-01T20:58:05.959Z,19.93
2022-09-01T21:00:43.205Z,19.88
2022-09-01T21:03:19.277Z,19.82
2022-09-01T21:05:58.360Z,19.78
2022-09-01T21:08:44.185Z,19.74
2022-09-01T21:11:25.371Z,19.72
2022-09-01T21:14:14.045Z,19.68
2022-09-01T21:16:53.555Z,19.64
2022-09-01T21:19:32.807Z,19.62
2022-09-01T21:22:07.489Z,19.58
2022-09-01T21:24:36.000Z,19.53
2022-09-01T21:27:08.042Z,19.48
2022-09-01T21:29:53.498Z,19.45
2022-09-01T21:32:22.827Z,19.45
2022-09-01T21:34:51.411Z,19.43
2022-09-01T21:37:22.366Z,19.40
2022-09-01T21:39:53.512Z,19.39
2022-09-01T21:42:23.150Z,19.40
2022-09-01T21:44:54.386Z,19.39
2022-09-01T21:47:22.913Z,19.36
2022-09-01T21:49:54.004Z,19.32
2022-09-01T21:52:23.363Z,19.24
2022-09-01T21:54:51.531Z,19.18
2022-09-01T21:57:20.898Z,19.12
2022-09-01T21:59:48.861Z,19.05
2022-09-01T22:02:17.512Z,19.03
2022-09-01T22:04:45.768Z,18.94
2022-09-01T22:07:18.620Z,18.85
2022-09-01T22:09:48.855Z,18.79
2022-09-01T22:12:16.794Z,18.74
2022-09-01T22:14:44.768Z,18.70
2022-09-01T22:17:13.140Z,18.68
2022-09-01T22:19:41.106Z,18.66
2022-09-01T22:22:09.369Z,18.65
2022-09-01T22:24:37.660Z,18.61
2022-09-01T22:27:09.915Z,18.58
2022-09-01T22:29:38.800Z,18.57
2022-09-01T22:32:06.961Z,18.53
2022-09-01T22:34:35.886Z,18.50
2022-09-01T22:37:05.039Z,18.50
2022-09-01T22:39:33.040Z,18.49
2022-09-01T22:42:01.143Z,18.46
2022-09-01T22:44:30.631Z,18.41
2022-09-01T22:46:58.639Z,18.37
2022-09-01T22:49:26.620Z,18.34
2022-09-01T22:51:54.768Z,18.31
2022-09-01T22:54:22.879Z,18.30
2022-09-01T22:56:52.461Z,18.30
2022-09-01T22:59:23.178Z,18.30
2022-09-01T23:01:52.999Z,18.27
2022-09-01T23:04:21.662Z,18.25
2022-09-01T23:06:52.577Z,18.20
2022-09-01T23:09:21.735Z,18.17
2022-09-01T23:11:50.450Z,18.14
2022-09-01T23:14:18.536Z,18.10
2022-09-01T23:16:47.093Z,18.08
2022-09-01T23:19:21.855Z,18.09
2022-09-01T23:21:51.037Z,18.10
2022-09-01T23:24:20.525Z,18.14
2022-09-01T23:26:49.727Z,18.17
2022-09-01T23:29:18.346Z,18.19
2022-09-01T23:31:46.657Z,18.20
2022-09-01T23:34:16.534Z,18.23
2022-09-01T23:36:46.180Z,18.20
2022-09-01T23:39:14.868Z,18.20
2022-09-01T23:41:43.383Z,18.20
2022-09-01T23:44:13.331Z,18.18
2022-09-01T23:46:44.512Z,18.17
2022-09-01T23:49:14.102Z,18.17
2022-09-01T23:51:42.405Z,18.14
2022-09-01T23:54:12.081Z,18.12
2022-09-01T23:56:40.816Z,18.07
2022-09-01T23:59:09.770Z,18.03
